Time;durP1;ratioP1;P1;durP2;ratioP2;P2;SDS_P1;SDS_P2;PMS_P1;PMS_P2;Temp;Humidity;BMP_temperature;BMP_pressure;BME280_temperature;BME280_humidity;BME280_pressure;Samples;Min_cycle;Max_cycle;Signal;HPM_P1;HPM_P2
2021/01/27 00:01:35;;;;;;;14.52;7.00;;;;;;;0.33;74.82;98687.22;3438955;28;20050;-51
2021/01/27 00:03:18;;;;;;;14.40;6.35;;;;;;;0.32;74.66;98679.50;3439599;28;20072;-49
2021/01/27 00:05:00;;;;;;;12.93;6.68;;;;;;;0.31;74.18;98673.53;3439152;28;20050;-52
2021/01/27 00:06:42;;;;;;;13.00;6.72;;;;;;;0.32;74.13;98684.59;3439419;28;20600;-53
2021/01/27 00:08:25;;;;;;;17.33;6.82;;;;;;;0.31;73.68;98683.75;3439922;28;20434;-52
2021/01/27 00:10:08;;;;;;;15.63;6.30;;;;;;;0.32;74.21;98682.91;3439811;28;20229;-51
2021/01/27 00:11:49;;;;;;;15.32;7.60;;;;;;;0.31;74.49;98687.94;3438354;28;20069;-52
2021/01/27 00:13:31;;;;;;;17.15;7.55;;;;;;;0.33;74.42;98691.41;3439967;28;20058;-49
2021/01/27 00:15:16;;;;;;;16.13;8.10;;;;;;;0.32;74.87;98688.00;3437915;28;20428;-50
2021/01/27 00:16:58;;;;;;;17.45;7.93;;;;;;;0.31;74.73;98691.38;3439989;28;20620;-52
2021/01/27 00:18:40;;;;;;;15.15;7.18;;;;;;;0.32;74.96;98690.56;3436868;28;20054;-52
2021/01/27 00:20:24;;;;;;;15.25;7.00;;;;;;;0.30;74.97;98688.78;3440562;28;20058;-52
2021/01/27 00:22:06;;;;;;;;;;;;;;;0.30;75.15;98694.75;3437980;28;20050;-52
2021/01/27 00:23:47;;;;;;;15.05;6.78;;;;;;;0.29;75.28;98692.97;3438882;28;19925;-53
2021/01/27 00:25:31;;;;;;;17.13;9.13;;;;;;;0.26;76.12;98698.00;3437995;28;20054;-49
2021/01/27 00:27:13;;;;;;;15.80;7.97;;;;;;;0.25;75.91;98695.38;3439810;28;20065;-52
2021/01/27 00:28:54;;;;;;;15.10;6.07;;;;;;;0.23;75.73;98685.13;3438817;28;20055;-52
2021/01/27 00:30:39;;;;;;;15.02;7.10;;;;;;;0.22;75.71;98680.81;3439443;28;20050;-52
2021/01/27 00:32:20;;;;;;;14.35;6.78;;;;;;;0.22;75.58;98685.91;3437617;28;20051;-51
2021/01/27 00:34:02;;;;;;;11.18;5.85;;;;;;;0.19;75.64;98671.38;3437960;28;20046;-50
2021/01/27 00:35:46;;;;;;;20.52;8.38;;;;;;;0.16;75.47;98672.94;3439309;28;20077;-52
2021/01/27 00:37:28;;;;;;;13.75;6.82;;;;;;;0.14;75.63;98675.44;3437956;28;20051;-50
2021/01/27 00:39:10;;;;;;;14.48;6.25;;;;;;;0.11;75.58;98665.09;3439299;28;20058;-51
2021/01/27 00:40:52;;;;;;;12.55;6.07;;;;;;;0.09;75.23;98673.50;3437648;28;20460;-52
2021/01/27 00:42:34;;;;;;;12.50;6.55;;;;;;;0.08;75.50;98667.53;3440148;28;20050;-46
2021/01/27 00:44:15;;;;;;;14.50;7.13;;;;;;;0.05;75.70;98667.44;3438890;28;20101;-47
2021/01/27 00:45:58;;;;;;;13.43;6.57;;;;;;;0.03;75.37;98667.38;3440331;28;20057;-46
2021/01/27 00:47:39;;;;;;;13.70;6.28;;;;;;;0.02;75.50;98669.84;3437981;28;20471;-48
2021/01/27 00:49:23;;;;;;;13.00;6.13;;;;;;;0.03;75.10;98666.47;3437879;28;20054;-45
2021/01/27 00:51:05;;;;;;;13.07;7.40;;;;;;;0.02;75.32;98668.16;3438821;28;20057;-47
2021/01/27 00:52:47;;;;;;;16.65;7.22;;;;;;;-0.00;75.67;98663.81;3442808;28;20047;-45
2021/01/27 00:54:28;;;;;;;17.30;7.20;;;;;;;-0.01;75.86;98662.06;3441093;28;20088;-45
2021/01/27 00:56:10;;;;;;;14.57;6.45;;;;;;;-0.02;74.94;98656.13;3441447;28;20050;-51
2021/01/27 00:57:52;;;;;;;14.10;7.05;;;;;;;-0.02;75.23;98656.13;3441260;28;20069;-50
2021/01/27 00:59:34;;;;;;;13.60;6.63;;;;;;;-0.01;75.15;98662.06;3439674;28;20477;-49
2021/01/27 01:01:16;;;;;;;14.50;6.55;;;;;;;-0.04;75.23;98657.75;3440485;28;20050;-52
2021/01/27 01:02:59;;;;;;;10.17;4.87;;;;;;;-0.04;75.49;98664.50;3440590;28;20499;-49
2021/01/27 01:04:41;;;;;;;12.65;6.72;;;;;;;-0.08;75.65;98666.06;3438912;28;20399;-52
2021/01/27 01:06:22;;;;;;;15.27;7.55;;;;;;;-0.09;75.47;98666.88;3440857;28;20132;-50
2021/01/27 01:08:05;;;;;;;15.90;7.20;;;;;;;-0.10;75.44;98666.81;3441960;28;20132;-50
2021/01/27 01:09:47;;;;;;;16.88;8.52;;;;;;;-0.11;75.88;98660.84;3439933;28;20050;-48
2021/01/27 01:11:28;;;;;;;14.68;7.85;;;;;;;-0.12;75.61;98665.91;3442186;28;20491;-50
2021/01/27 01:13:13;;;;;;;16.92;7.32;;;;;;;-0.15;76.10;98659.88;3441454;28;20054;-51
2021/01/27 01:14:54;;;;;;;;;;;;;;;-0.16;75.95;98659.81;3442817;28;20050;-53
2021/01/27 01:16:38;;;;;;;12.90;6.15;;;;;;;-0.19;76.11;98652.88;3439514;28;20334;-53
2021/01/27 01:18:20;;;;;;;18.58;7.72;;;;;;;-0.21;76.42;98646.88;3442817;28;20085;-53
2021/01/27 01:20:03;;;;;;;19.20;7.55;;;;;;;-0.21;76.27;98651.09;3437549;28;20046;-45
2021/01/27 01:21:45;;;;;;;13.98;6.22;;;;;;;-0.22;76.12;98651.91;3441297;28;20046;-46
2021/01/27 01:23:26;;;;;;;18.83;8.18;;;;;;;-0.22;76.12;98647.69;3439738;28;20427;-45
2021/01/27 01:25:09;;;;;;;17.50;8.10;;;;;;;-0.23;76.30;98647.63;3441245;28;20046;-45
2021/01/27 01:26:51;;;;;;;13.57;6.70;;;;;;;-0.25;76.46;98652.66;3441221;28;20046;-45
2021/01/27 01:28:32;;;;;;;15.05;7.93;;;;;;;-0.28;76.94;98651.66;3440231;28;20050;-46
2021/01/27 01:30:17;;;;;;;13.43;6.93;;;;;;;-0.32;76.70;98648.13;3441524;28;21527;-45
2021/01/27 01:31:59;;;;;;;16.10;7.68;;;;;;;-0.34;77.12;98637.00;3438923;28;20062;-45
2021/01/27 01:33:41;;;;;;;16.08;7.88;;;;;;;-0.36;77.17;98636.06;3441570;28;21107;-46
2021/01/27 01:35:23;;;;;;;17.13;7.85;;;;;;;-0.38;76.90;98633.47;3439777;28;20054;-46
2021/01/27 01:37:05;;;;;;;17.33;7.93;;;;;;;-0.38;77.42;98640.22;3441376;28;20057;-45
2021/01/27 01:38:46;;;;;;;16.88;8.70;;;;;;;-0.40;77.27;98631.66;3439986;28;20392;-46
2021/01/27 01:40:30;;;;;;;13.77;5.90;;;;;;;-0.41;77.06;98629.91;3442487;28;20061;-46
2021/01/27 01:42:12;;;;;;;;;;;;;;;-0.42;77.29;98626.50;3439107;28;20105;-46
2021/01/27 01:43:53;;;;;;;13.00;6.22;;;;;;;-0.43;77.51;98623.88;3442310;28;19933;-45
2021/01/27 01:45:38;;;;;;;14.00;7.30;;;;;;;-0.45;77.72;98622.97;3439095;28;20055;-47
2021/01/27 01:47:20;;;;;;;17.40;7.70;;;;;;;-0.47;77.71;98624.56;3442061;28;20141;-45
2021/01/27 01:49:05;;;;;;;16.50;7.78;;;;;;;-0.47;77.58;98624.56;3438194;28;20053;-45
2021/01/27 01:50:47;;;;;;;;;;;;;;;-0.48;77.58;98616.06;3442440;28;20043;-46
2021/01/27 01:52:29;;;;;;;19.25;8.60;;;;;;;-0.47;77.46;98619.50;3440949;28;20868;-50
2021/01/27 01:54:16;;;;;;;17.17;8.43;;;;;;;-0.48;77.54;98618.63;3440073;28;20443;-52
2021/01/27 01:56:02;;;;;;;15.70;8.02;;;;;;;-0.50;77.59;98612.59;3440785;28;20061;-52
2021/01/27 01:57:47;;;;;;;17.10;8.25;;;;;;;-0.50;77.87;98610.06;3440213;28;20318;-52
2021/01/27 01:59:32;;;;;;;17.95;8.70;;;;;;;-0.51;77.77;98610.84;3439252;28;20050;-52
2021/01/27 02:01:14;;;;;;;20.33;8.77;;;;;;;-0.51;77.98;98613.41;3441130;28;20061;-53
2021/01/27 02:02:57;;;;;;;18.50;8.50;;;;;;;-0.50;77.86;98609.16;3441119;28;20539;-53
2021/01/27 02:04:45;;;;;;;20.55;8.90;;;;;;;-0.51;77.92;98610.00;3440204;28;20060;-49
2021/01/27 02:06:26;;;;;;;16.63;7.47;;;;;;;-0.50;77.71;98607.50;3438920;28;20057;-52
2021/01/27 02:08:08;;;;;;;15.05;7.47;;;;;;;-0.49;77.95;98608.38;3441157;28;20046;-50
2021/01/27 02:09:50;;;;;;;19.17;8.95;;;;;;;-0.51;77.89;98604.91;3441682;28;20076;-52
2021/01/27 02:11:53;;;;;;;18.55;7.50;;;;;;;-0.51;77.98;98603.22;3439461;28;20057;-53
2021/01/27 02:14:02;;;;;;;16.38;7.95;;;;;;;-0.51;78.15;98615.94;3440050;28;20057;-51
2021/01/27 02:15:59;;;;;;;17.80;8.02;;;;;;;-0.49;78.09;98618.56;3439480;28;20074;-51
2021/01/27 02:17:49;;;;;;;20.52;8.80;;;;;;;-0.48;77.76;98607.53;3440708;28;20097;-53
2021/01/27 02:20:01;;;;;;;15.90;7.25;;;;;;;-0.48;78.02;98610.97;3438151;28;20051;-53
2021/01/27 02:22:25;;;;;;;19.48;9.02;;;;;;;-0.47;78.02;98606.75;3436777;28;20050;-49
2021/01/27 02:24:40;;;;;;;16.23;6.80;;;;;;;-0.48;77.83;98610.09;3439440;28;20094;-54
2021/01/27 02:26:45;;;;;;;19.85;8.40;;;;;;;-0.49;77.86;98611.78;3438818;28;20054;-52
2021/01/27 02:28:42;;;;;;;17.33;8.65;;;;;;;-0.48;78.08;98615.19;3438413;28;20078;-53
2021/01/27 02:30:44;;;;;;;15.82;7.47;;;;;;;-0.50;77.78;98597.31;3440059;28;20057;-50
2021/01/27 02:32:53;;;;;;;16.65;9.27;;;;;;;-0.49;78.11;98609.22;3435647;28;20049;-46
2021/01/27 02:35:01;;;;;;;16.27;8.60;;;;;;;-0.48;78.45;98610.09;3440451;28;20102;-45
2021/01/27 02:36:46;;;;;;;18.45;8.75;;;;;;;-0.49;78.33;98601.59;3438063;28;20046;-46
2021/01/27 02:38:32;;;;;;;18.00;8.40;;;;;;;-0.50;78.20;98607.50;3440625;28;20043;-46
2021/01/27 02:40:21;;;;;;;17.15;8.23;;;;;;;-0.48;77.94;98605.88;3437925;28;20419;-46
2021/01/27 02:42:10;;;;;;;23.23;10.35;;;;;;;-0.48;78.13;98605.00;3438322;28;20085;-47
2021/01/27 02:43:56;;;;;;;20.52;10.30;;;;;;;-0.49;78.41;98600.72;3440701;28;20049;-46
2021/01/27 02:45:42;;;;;;;18.35;8.70;;;;;;;-0.51;78.47;98597.25;3441223;28;20057;-46
2021/01/27 02:47:28;;;;;;;18.73;9.00;;;;;;;-0.51;78.16;98603.22;3438170;28;20058;-48
2021/01/27 02:49:14;;;;;;;23.50;10.85;;;;;;;-0.53;78.32;98608.25;3441011;28;20072;-46
2021/01/27 02:51:02;;;;;;;19.85;9.23;;;;;;;-0.54;78.59;98601.41;3439847;28;20046;-48
2021/01/27 02:52:49;;;;;;;18.98;9.27;;;;;;;-0.55;78.86;98607.31;3438692;28;20639;-47
2021/01/27 02:54:36;;;;;;;20.27;9.32;;;;;;;-0.56;78.53;98605.56;3438382;28;20082;-46
2021/01/27 02:56:23;;;;;;;19.08;9.40;;;;;;;-0.56;78.82;98615.75;3440721;28;20323;-49
2021/01/27 02:58:12;;;;;;;20.45;9.35;;;;;;;-0.56;78.67;98604.69;3440051;28;20046;-47
2021/01/27 02:59:59;;;;;;;19.92;8.80;;;;;;;-0.56;78.72;98612.34;3441373;28;20048;-48
2021/01/27 03:01:46;;;;;;;20.70;9.70;;;;;;;-0.57;78.86;98608.94;3437064;28;20055;-47
2021/01/27 03:03:36;;;;;;;17.48;8.52;;;;;;;-0.58;79.02;98609.72;3439803;28;20061;-45
2021/01/27 03:05:20;;;;;;;16.80;8.02;;;;;;;-0.59;79.14;98610.56;3437968;28;20423;-46
2021/01/27 03:07:04;;;;;;;22.90;10.27;;;;;;;-0.59;79.04;98612.22;3441221;28;20057;-45
2021/01/27 03:09:03;;;;;;;17.17;8.85;;;;;;;-0.61;79.47;98612.13;3437376;28;20070;-45
2021/01/27 03:10:52;;;;;;;19.00;8.98;;;;;;;-0.61;79.30;98612.13;3439290;28;20082;-45
2021/01/27 03:12:34;;;;;;;17.60;8.48;;;;;;;-0.61;79.38;98607.06;3436946;28;20069;-48
2021/01/27 03:14:16;;;;;;;21.38;9.45;;;;;;;-0.61;79.55;98604.50;3440619;28;20500;-47
2021/01/27 03:16:02;;;;;;;19.25;7.57;;;;;;;-0.60;79.45;98602.84;3437378;28;20061;-46
2021/01/27 03:17:48;;;;;;;22.92;9.85;;;;;;;-0.61;79.32;98604.50;3439430;28;20054;-52
2021/01/27 03:19:36;;;;;;;20.98;10.32;;;;;;;-0.61;79.47;98599.41;3438039;28;20137;-52
2021/01/27 03:21:24;;;;;;;20.88;9.30;;;;;;;-0.60;79.53;98590.13;3441089;28;20160;-52
2021/01/27 03:23:12;;;;;;;22.10;9.57;;;;;;;-0.60;80.00;98590.13;3437047;28;20046;-52
2021/01/27 03:24:59;;;;;;;23.75;10.85;;;;;;;-0.61;79.74;98588.38;3440056;28;20057;-52
2021/01/27 03:26:48;;;;;;;20.67;9.63;;;;;;;-0.62;79.70;98584.09;3438839;28;20530;-50
2021/01/27 03:28:32;;;;;;;17.08;8.02;;;;;;;-0.62;79.65;98579.84;3441125;28;20054;-52
2021/01/27 03:30:15;;;;;;;18.88;9.27;;;;;;;-0.62;80.08;98582.41;3438587;28;20073;-52
2021/01/27 03:32:02;;;;;;;24.58;11.55;;;;;;;-0.63;80.00;98567.91;3437660;28;20043;-49
2021/01/27 03:33:50;;;;;;;23.98;10.45;;;;;;;-0.63;80.24;98567.06;3437252;28;20047;-49
2021/01/27 03:35:38;;;;;;;18.00;8.82;;;;;;;-0.64;80.22;98572.94;3438414;28;20046;-52
2021/01/27 03:37:26;;;;;;;22.35;10.70;;;;;;;-0.67;80.59;98572.84;3439368;28;20124;-53
2021/01/27 03:39:10;;;;;;;20.15;8.13;;;;;;;-0.68;80.33;98569.41;3439601;28;20081;-51
2021/01/27 03:40:57;;;;;;;18.67;9.70;;;;;;;-0.69;80.54;98574.44;3439353;28;20050;-50
2021/01/27 03:42:45;;;;;;;21.45;10.55;;;;;;;-0.70;80.41;98582.91;3440435;28;20050;-52
2021/01/27 03:44:33;;;;;;;26.20;12.23;;;;;;;-0.71;81.01;98574.41;3436740;28;20050;-53
2021/01/27 03:46:21;;;;;;;23.80;10.15;;;;;;;-0.74;80.69;98577.69;3438636;28;20057;-52
2021/01/27 03:48:10;;;;;;;21.80;9.35;;;;;;;-0.75;81.32;98578.50;3437078;28;20086;-53
2021/01/27 03:49:58;;;;;;;20.50;10.10;;;;;;;-0.75;81.14;98590.34;3437345;28;20088;-51
2021/01/27 03:51:42;;;;;;;22.58;10.45;;;;;;;-0.76;81.17;98586.06;3439152;28;20050;-52
2021/01/27 03:53:26;;;;;;;24.33;11.18;;;;;;;-0.78;81.43;98586.00;3439288;28;20558;-53
2021/01/27 03:55:16;;;;;;;24.48;11.23;;;;;;;-0.79;81.30;98591.03;3439427;28;20050;-53
2021/01/27 03:57:03;;;;;;;26.30;11.30;;;;;;;-0.80;81.51;98582.53;3440608;28;20196;-50
2021/01/27 03:58:48;;;;;;;27.05;12.32;;;;;;;-0.82;81.90;98586.66;3436360;28;20050;-51
2021/01/27 04:00:31;;;;;;;28.50;12.00;;;;;;;-0.82;82.14;98593.44;3440427;28;20050;-50
2021/01/27 04:02:18;;;;;;;29.92;12.07;;;;;;;-0.83;82.39;98592.59;3439070;28;20046;-53
2021/01/27 04:04:00;;;;;;;30.20;13.52;;;;;;;-0.84;82.02;98601.03;3439417;28;20054;-53
2021/01/27 04:05:42;;;;;;;27.65;13.60;;;;;;;-0.84;82.54;98597.63;3439669;28;20058;-52
2021/01/27 04:07:23;;;;;;;27.45;13.35;;;;;;;-0.85;82.67;98595.88;3438851;28;20055;-53
2021/01/27 04:09:05;;;;;;;28.08;13.07;;;;;;;-0.86;82.68;98589.06;3439786;28;20054;-52
2021/01/27 04:10:47;;;;;;;23.35;11.40;;;;;;;-0.87;82.45;98590.72;3438344;28;20108;-52
2021/01/27 04:12:29;;;;;;;25.35;12.15;;;;;;;-0.87;82.67;98592.38;3439321;28;20474;-53
2021/01/27 04:14:11;;;;;;;24.13;12.10;;;;;;;-0.89;83.03;98589.78;3439815;28;20423;-53
2021/01/27 04:15:52;;;;;;;25.02;11.85;;;;;;;-0.90;82.72;98590.59;3439887;28;20089;-51
2021/01/27 04:17:34;;;;;;;26.70;11.40;;;;;;;-0.91;82.89;98586.31;3439129;28;20082;-53
2021/01/27 04:19:16;;;;;;;28.00;12.48;;;;;;;-0.92;83.23;98593.09;3440128;28;20073;-50
2021/01/27 04:20:57;;;;;;;28.35;12.57;;;;;;;-0.94;83.33;98596.34;3438585;28;20054;-53
2021/01/27 04:22:39;;;;;;;28.40;11.95;;;;;;;-0.95;83.16;98603.13;3440810;28;20055;-53
2021/01/27 04:24:21;;;;;;;27.83;12.48;;;;;;;-0.95;83.37;98602.25;3436701;28;20530;-53
2021/01/27 04:26:04;;;;;;;25.65;11.10;;;;;;;-0.96;83.58;98598.84;3439760;28;20074;-52
2021/01/27 04:27:46;;;;;;;24.58;11.80;;;;;;;-0.96;83.71;98603.06;3435036;28;20059;-50
2021/01/27 04:29:27;;;;;;;24.95;12.38;;;;;;;-0.97;83.62;98607.28;3440414;28;20580;-53
2021/01/27 04:31:09;;;;;;;22.25;11.10;;;;;;;-0.98;83.50;98603.00;3438197;28;20466;-50
2021/01/27 04:32:51;;;;;;;24.65;11.25;;;;;;;-0.98;83.37;98604.69;3437947;28;20133;-54
2021/01/27 04:34:34;;;;;;;27.60;12.88;;;;;;;-0.97;83.27;98603.88;3439518;28;20067;-52
2021/01/27 04:36:16;;;;;;;27.63;12.55;;;;;;;-0.98;83.38;98609.75;3438890;28;20058;-53
2021/01/27 04:37:57;;;;;;;30.88;13.27;;;;;;;-0.98;83.46;98605.53;3438749;28;20042;-54
2021/01/27 04:39:39;;;;;;;31.60;13.45;;;;;;;-0.99;83.76;98601.28;3438610;28;20535;-53
2021/01/27 04:41:21;;;;;;;30.25;13.00;;;;;;;-0.99;83.57;98600.41;3439243;28;20585;-51
2021/01/27 04:43:04;;;;;;;29.50;12.55;;;;;;;-0.99;83.16;98600.41;3437562;28;20500;-53
2021/01/27 04:44:46;;;;;;;21.77;10.75;;;;;;;-1.01;83.52;98595.25;3438894;28;20062;-51
2021/01/27 04:46:32;;;;;;;30.75;14.23;;;;;;;-1.00;83.84;98599.50;3435706;28;20093;-53
2021/01/27 04:48:20;;;;;;;29.65;13.95;;;;;;;-1.01;83.72;98604.53;3436713;28;20054;-46
2021/01/27 04:50:06;;;;;;;28.80;12.85;;;;;;;-1.02;83.75;98598.59;3438097;28;20054;-47
2021/01/27 04:51:54;;;;;;;23.90;11.27;;;;;;;-1.02;83.83;98600.28;3437774;28;20504;-48
2021/01/27 04:53:47;;;;;;;26.75;12.85;;;;;;;-1.02;83.95;98603.69;3437170;28;20358;-49
2021/01/27 04:56:01;;;;;;;22.48;10.68;;;;;;;-1.02;83.76;98597.72;3437980;28;20460;-48
2021/01/27 04:57:55;;;;;;;27.13;12.07;;;;;;;-1.03;84.15;98599.41;3437631;28;20050;-48
2021/01/27 04:59:48;;;;;;;28.50;12.90;;;;;;;-1.03;84.06;98604.50;3439398;28;20046;-47
2021/01/27 05:01:57;;;;;;;23.65;10.93;;;;;;;-1.03;84.03;98603.59;3439743;28;20061;-49
2021/01/27 05:03:51;;;;;;;32.33;13.75;;;;;;;-1.04;84.60;98607.84;3435803;28;20442;-47
2021/01/27 05:05:36;;;;;;;33.90;15.02;;;;;;;-1.05;84.46;98607.78;3439091;28;20050;-46
2021/01/27 05:07:23;;;;;;;35.28;17.10;;;;;;;-1.06;84.63;98606.91;3438305;28;20054;-47
2021/01/27 05:09:10;;;;;;;35.35;16.80;;;;;;;-1.07;84.36;98604.28;3437006;28;20054;-45
2021/01/27 05:10:54;;;;;;;39.83;18.45;;;;;;;-1.07;84.53;98609.38;3438824;28;20046;-46
2021/01/27 05:12:43;;;;;;;40.83;18.08;;;;;;;-1.09;84.78;98604.22;3438209;28;20049;-48
2021/01/27 05:14:26;;;;;;;48.05;19.02;;;;;;;-1.12;84.91;98602.44;3436785;28;20209;-46
2021/01/27 05:16:11;;;;;;;56.40;22.00;;;;;;;-1.12;84.93;98601.53;3438198;28;20061;-46
2021/01/27 05:17:55;;;;;;;46.90;19.63;;;;;;;-1.12;85.10;98606.63;3438945;28;20141;-48
2021/01/27 05:19:38;;;;;;;44.10;19.50;;;;;;;-1.16;85.09;98605.63;3437354;28;20061;-46
2021/01/27 05:21:26;;;;;;;39.25;17.95;;;;;;;-1.17;85.32;98613.19;3438728;28;20094;-47
2021/01/27 05:23:09;;;;;;;39.30;17.83;;;;;;;-1.20;85.37;98611.41;3438740;28;20050;-46
2021/01/27 05:24:50;;;;;;;39.58;17.63;;;;;;;-1.21;85.68;98617.28;3439080;28;20042;-48
2021/01/27 05:26:36;;;;;;;47.00;19.85;;;;;;;-1.23;85.93;98623.13;3437821;28;20054;-46
2021/01/27 05:28:22;;;;;;;42.72;17.95;;;;;;;-1.25;85.81;98624.75;3439438;28;20054;-49
2021/01/27 05:30:14;;;;;;;47.00;19.08;;;;;;;-1.29;85.94;98629.69;3438002;28;20054;-46
2021/01/27 05:32:01;;;;;;;39.13;18.13;;;;;;;-1.29;85.90;98629.69;3438095;28;20054;-46
2021/01/27 05:33:48;;;;;;;33.97;15.93;;;;;;;-1.31;86.08;98626.22;3438902;28;20081;-46
2021/01/27 05:35:33;;;;;;;39.38;15.95;;;;;;;-1.31;86.49;98635.53;3437855;28;20112;-50
2021/01/27 05:37:18;;;;;;;32.08;15.43;;;;;;;-1.31;86.29;98635.53;3439961;28;20046;-48
2021/01/27 05:39:10;;;;;;;38.72;15.57;;;;;;;-1.32;86.49;98634.63;3441773;28;20182;-45
2021/01/27 05:41:02;;;;;;;36.58;16.27;;;;;;;-1.31;86.47;98643.16;3439170;28;20054;-46
2021/01/27 05:42:44;;;;;;;35.72;15.20;;;;;;;-1.33;86.22;98640.53;3439322;28;20054;-47
2021/01/27 05:44:27;;;;;;;33.03;13.98;;;;;;;-1.33;86.29;98642.19;3438191;28;20050;-47
2021/01/27 05:46:12;;;;;;;32.00;13.63;;;;;;;-1.33;86.02;98650.72;3442231;28;20455;-46
2021/01/27 05:47:54;;;;;;;32.00;14.80;;;;;;;-1.32;86.34;98649.03;3439129;28;20566;-46
2021/01/27 05:49:36;;;;;;;34.47;15.02;;;;;;;-1.34;86.55;98643.88;3441836;28;20050;-46
2021/01/27 05:51:27;;;;;;;38.10;14.93;;;;;;;-1.32;86.69;98644.81;3439986;28;20081;-48
2021/01/27 05:53:12;;;;;;;36.88;14.27;;;;;;;-1.30;86.24;98647.44;3440196;28;20585;-47
2021/01/27 05:54:53;;;;;;;27.23;13.20;;;;;;;-1.29;86.41;98646.63;3440317;28;20081;-45
2021/01/27 05:56:35;;;;;;;32.50;14.13;;;;;;;-1.27;86.32;98654.34;3440978;28;20078;-46
2021/01/27 05:58:16;;;;;;;31.40;13.68;;;;;;;-1.27;86.54;98650.13;3440492;28;20081;-45
2021/01/27 06:00:09;;;;;;;30.95;14.68;;;;;;;-1.26;86.32;98649.28;3440667;28;20042;-46
2021/01/27 06:01:52;;;;;;;31.27;14.68;;;;;;;-1.25;86.31;98652.72;3438712;28;20491;-46
2021/01/27 06:03:35;;;;;;;36.13;16.45;;;;;;;-1.26;86.40;98651.84;3440983;28;20057;-46
2021/01/27 06:05:27;;;;;;;33.50;14.77;;;;;;;-1.26;86.49;98653.50;3440484;28;20419;-46
2021/01/27 06:07:21;;;;;;;31.02;13.95;;;;;;;-1.24;86.35;98649.38;3439407;28;20511;-46
2021/01/27 06:09:05;;;;;;;32.97;15.00;;;;;;;-1.24;86.20;98650.25;3440682;28;21594;-49
2021/01/27 06:10:47;;;;;;;31.15;14.70;;;;;;;-1.22;86.57;98655.38;3440078;28;20431;-48
2021/01/27 06:12:30;;;;;;;32.80;14.75;;;;;;;-1.22;86.61;98656.28;3440498;28;20423;-50
2021/01/27 06:14:17;;;;;;;28.83;13.90;;;;;;;-1.21;86.22;98657.13;3441241;28;20606;-45
2021/01/27 06:15:58;;;;;;;44.10;14.32;;;;;;;-1.20;86.31;98656.34;3440670;28;20423;-47
2021/01/27 06:17:44;;;;;;;33.58;14.20;;;;;;;-1.20;86.47;98661.44;3439461;28;20081;-50
2021/01/27 06:19:30;;;;;;;34.40;16.35;;;;;;;-1.19;86.52;98663.16;3439644;28;20061;-48
2021/01/27 06:21:45;;;;;;;37.85;17.33;;;;;;;-1.17;86.51;98659.00;3439163;28;20081;-45
2021/01/27 06:23:49;;;;;;;45.20;19.38;;;;;;;-1.18;86.43;98658.13;3438219;28;20050;-46
2021/01/27 06:25:43;;;;;;;39.88;19.40;;;;;;;-1.16;86.58;98663.28;3440828;28;20042;-45
2021/01/27 06:27:58;;;;;;;49.72;20.75;;;;;;;-1.16;86.37;98660.75;3437750;28;20423;-45
2021/01/27 06:30:20;;;;;;;53.25;20.65;;;;;;;-1.14;86.59;98661.69;3438706;28;20097;-46
2021/01/27 06:32:20;;;;;;;60.78;24.92;;;;;;;-1.12;86.52;98655.88;3437535;28;20046;-48
2021/01/27 06:34:34;;;;;;;52.90;25.23;;;;;;;-1.11;86.81;98652.50;3440429;28;20046;-46
2021/01/27 06:36:51;;;;;;;49.33;22.45;;;;;;;-1.06;86.72;98662.03;3440428;28;20149;-48
2021/01/27 06:39:01;;;;;;;48.50;21.60;;;;;;;-1.05;86.53;98656.97;3437408;28;20472;-48
2021/01/27 06:41:02;;;;;;;45.20;21.15;;;;;;;-1.03;86.58;98665.59;3441656;28;20054;-49
2021/01/27 06:43:16;;;;;;;49.35;21.17;;;;;;;-1.01;86.47;98663.06;3438668;28;20058;-47
2021/01/27 06:45:10;;;;;;;49.00;21.80;;;;;;;-0.99;86.46;98667.44;3425233;28;20046;-46
2021/01/27 06:47:19;;;;;;;43.10;17.92;;;;;;;-0.96;86.41;98661.59;3436303;28;20287;-46
2021/01/27 06:49:54;;;;;;;42.08;19.23;;;;;;;-0.95;86.13;98665.91;3439142;28;20137;-45
2021/01/27 06:52:00;;;;;;;43.60;19.03;;;;;;;-0.94;86.25;98658.34;3440498;28;20046;-48
2021/01/27 06:54:16;;;;;;;37.63;17.92;;;;;;;-0.91;86.09;98653.38;3439382;28;20443;-45
2021/01/27 06:56:28;;;;;;;49.00;19.65;;;;;;;-0.88;86.38;98647.53;3439332;28;20070;-47
2021/01/27 06:58:29;;;;;;;45.80;19.65;;;;;;;-0.86;86.12;98645.91;3423704;28;20050;-46
2021/01/27 07:00:32;;;;;;;35.78;16.52;;;;;;;-0.83;86.05;98651.16;3436162;28;20104;-46
2021/01/27 07:03:08;;;;;;;39.47;17.73;;;;;;;-0.79;85.89;98649.59;3440654;28;20061;-45
2021/01/27 07:05:22;;;;;;;37.50;15.25;;;;;;;-0.77;85.57;98653.06;3439195;28;20137;-47
2021/01/27 07:07:33;;;;;;;30.58;15.75;;;;;;;-0.75;85.52;98649.81;3438324;28;20073;-45
2021/01/27 07:09:51;;;;;;;31.88;16.35;;;;;;;-0.73;85.81;98650.72;3440542;28;20108;-47
2021/01/27 07:11:43;;;;;;;31.92;13.90;;;;;;;-0.70;85.57;98646.56;3437537;28;20058;-47
2021/01/27 07:13:48;;;;;;;31.30;13.32;;;;;;;-0.68;85.40;98645.81;3439344;28;20050;-45
2021/01/27 07:15:44;;;;;;;26.20;12.27;;;;;;;-0.66;85.28;98646.78;3437917;28;20054;-46
2021/01/27 07:17:43;;;;;;;33.22;16.00;;;;;;;-0.62;85.55;98643.53;3439226;28;20085;-45
2021/01/27 07:19:48;;;;;;;30.08;14.25;;;;;;;-0.59;85.60;98647.88;3439773;28;20057;-45
2021/01/27 07:21:35;;;;;;;35.40;15.93;;;;;;;-0.55;85.55;98654.84;3439262;28;20534;-45
2021/01/27 07:23:25;;;;;;;38.80;16.40;;;;;;;-0.52;85.29;98660.03;3439354;28;20049;-45
2021/01/27 07:25:16;;;;;;;30.77;14.45;;;;;;;-0.49;85.34;98656.78;3437861;28;20054;-46
2021/01/27 07:27:05;;;;;;;34.85;14.43;;;;;;;-0.48;85.20;98661.94;3437976;28;20563;-45
2021/01/27 07:28:55;;;;;;;34.00;16.25;;;;;;;-0.45;84.83;98663.72;3439140;28;20104;-45
2021/01/27 07:30:44;;;;;;;33.17;16.45;;;;;;;-0.43;84.84;98663.00;3438085;28;20046;-45
2021/01/27 07:32:33;;;;;;;38.97;17.80;;;;;;;-0.42;84.80;98656.22;3436923;28;20054;-45
2021/01/27 07:34:21;;;;;;;31.67;14.95;;;;;;;-0.41;84.42;98653.72;3438214;28;20042;-44
2021/01/27 07:36:14;;;;;;;38.80;18.20;;;;;;;-0.39;84.67;98656.34;3438479;28;20091;-47
2021/01/27 07:38:01;;;;;;;37.35;16.75;;;;;;;-0.37;84.31;98663.22;3438898;28;20046;-46
2021/01/27 07:39:59;;;;;;;33.35;17.35;;;;;;;-0.35;84.77;98656.50;3438645;28;20050;-45
2021/01/27 07:41:50;;;;;;;38.58;19.35;;;;;;;-0.32;84.47;98663.41;3437797;28;20586;-47
2021/01/27 07:43:39;;;;;;;38.97;18.70;;;;;;;-0.28;84.78;98657.63;3438447;28;20105;-46
2021/01/27 07:45:25;;;;;;;38.47;16.63;;;;;;;-0.24;84.40;98661.16;3437612;28;20050;-45
2021/01/27 07:47:19;;;;;;;38.92;17.73;;;;;;;-0.20;84.23;98663.03;3439280;28;20394;-47
2021/01/27 07:49:04;;;;;;;32.97;13.75;;;;;;;-0.19;84.09;98649.47;3438456;28;20054;-45
2021/01/27 07:50:50;;;;;;;36.85;17.00;;;;;;;-0.18;83.92;98654.66;3438859;28;20050;-50
2021/01/27 07:52:37;;;;;;;31.33;15.50;;;;;;;-0.16;83.72;98649.63;3437515;28;20435;-55
2021/01/27 07:54:24;;;;;;;35.47;17.20;;;;;;;-0.15;83.68;98643.69;3439641;28;20042;-52
2021/01/27 07:56:14;;;;;;;32.38;15.68;;;;;;;-0.11;83.75;98644.66;3437632;28;20551;-52
2021/01/27 07:58:03;;;;;;;34.70;15.73;;;;;;;-0.07;83.49;98644.88;3438805;28;20463;-51
2021/01/27 07:59:51;;;;;;;35.15;15.88;;;;;;;-0.03;83.56;98644.16;3439677;28;20046;-52
2021/01/27 08:01:41;;;;;;;31.83;15.73;;;;;;;-0.01;83.49;98645.09;3437868;28;20085;-52
2021/01/27 08:03:47;;;;;;;36.22;18.05;;;;;;;0.02;83.57;98646.91;3439418;28;20511;-49
2021/01/27 08:05:35;;;;;;;37.13;16.83;;;;;;;0.07;83.40;98652.19;3439515;28;20054;-53
2021/01/27 08:07:22;;;;;;;34.95;16.17;;;;;;;0.05;83.01;98649.59;3439424;28;20046;-46
2021/01/27 08:09:05;;;;;;;32.92;15.90;;;;;;;0.08;82.72;98656.47;3437847;28;20594;-46
2021/01/27 08:10:48;;;;;;;31.15;15.55;;;;;;;0.10;83.37;98647.19;3439617;28;20053;-47
2021/01/27 08:12:39;;;;;;;30.80;15.15;;;;;;;0.14;83.32;98646.53;3438019;28;20992;-45
2021/01/27 08:14:57;;;;;;;31.15;15.02;;;;;;;0.18;82.80;98651.78;3440087;28;20087;-46
2021/01/27 08:16:40;;;;;;;34.60;14.85;;;;;;;0.21;82.13;98641.69;3438622;28;20050;-47
2021/01/27 08:18:22;;;;;;;32.25;15.75;;;;;;;0.21;82.04;98645.94;3440569;28;20569;-48
2021/01/27 08:20:17;;;;;;;36.00;16.75;;;;;;;0.22;82.57;98653.66;3437274;28;20053;-52
2021/01/27 08:22:04;;;;;;;34.28;15.77;;;;;;;0.26;82.75;98651.19;3438622;28;20140;-53
2021/01/27 08:23:47;;;;;;;38.95;16.15;;;;;;;0.36;84.54;98649.03;3437881;28;20085;-53